Time;durP1;ratioP1;P1;durP2;ratioP2;P2;SDS_P1;SDS_P2;PMS_P1;PMS_P2;Temp;Humidity;BMP_temperature;BMP_pressure;BME280_temperature;BME280_humidity;BME280_pressure;Samples;Min_cycle;Max_cycle;Signal;HPM_P1;HPM_P2
2021/09/19 00:00:10;;;;;;;9.93;7.20;;;;;;;13.98;81.26;101623.09;5054184;28;20029;-42
2021/09/19 00:02:36;;;;;;;15.52;6.97;;;;;;;13.90;81.41;101621.44;5053964;28;20033;-41
2021/09/19 00:05:02;;;;;;;9.85;7.30;;;;;;;13.94;81.63;101617.47;5053795;28;20070;-42
2021/09/19 00:07:27;;;;;;;13.02;7.32;;;;;;;13.92;81.71;101613.44;5054694;28;20484;-42
2021/09/19 00:09:52;;;;;;;9.85;7.25;;;;;;;13.90;81.72;101615.44;5054886;28;20025;-42
2021/09/19 00:12:18;;;;;;;10.18;7.30;;;;;;;13.84;82.11;101609.22;5055121;28;20035;-42
2021/09/19 00:14:43;;;;;;;9.60;7.03;;;;;;;13.84;81.93;101610.97;5055110;28;20036;-42
2021/09/19 00:17:08;;;;;;;9.38;7.65;;;;;;;13.83;81.70;101599.00;5055025;28;20067;-42
2021/09/19 00:19:34;;;;;;;11.70;7.55;;;;;;;13.86;82.36;101598.63;5055137;28;20024;-43
2021/09/19 00:21:59;;;;;;;13.25;7.90;;;;;;;13.81;82.14;101594.00;5037250;28;20037;-42
2021/09/19 00:24:24;;;;;;;11.60;7.85;;;;;;;13.85;82.13;101597.00;5054936;28;20027;-42
2021/09/19 00:26:50;;;;;;;9.80;7.55;;;;;;;13.90;81.74;101597.25;5055297;28;20084;-42
2021/09/19 00:29:15;;;;;;;9.65;7.80;;;;;;;13.86;82.04;101599.41;5055062;28;20036;-42
2021/09/19 00:31:41;;;;;;;11.30;7.80;;;;;;;13.85;81.79;101592.63;5055039;28;20017;-42
2021/09/19 00:34:06;;;;;;;10.48;7.40;;;;;;;13.82;81.81;101597.41;5054519;28;20086;-43
2021/09/19 00:36:31;;;;;;;11.73;8.18;;;;;;;13.75;82.19;101592.97;5054577;28;20020;-42
2021/09/19 00:38:57;;;;;;;14.95;8.35;;;;;;;13.75;82.63;101592.97;5054638;28;20027;-42
2021/09/19 00:41:22;;;;;;;11.57;8.25;;;;;;;13.69;82.78;101583.28;5053302;28;20031;-42
2021/09/19 00:43:47;;;;;;;13.13;8.88;;;;;;;13.67;82.57;101584.50;5055257;28;20033;-42
2021/09/19 00:46:13;;;;;;;10.30;8.05;;;;;;;13.71;82.36;101583.13;5054362;28;20078;-42
2021/09/19 00:48:38;;;;;;;12.55;8.38;;;;;;;13.64;82.40;101570.09;5053180;28;20036;-43
2021/09/19 00:51:04;;;;;;;13.57;8.70;;;;;;;13.66;82.33;101580.28;5053335;28;20029;-43
2021/09/19 00:53:35;;;;;;;12.40;8.40;;;;;;;13.71;82.26;101577.91;5054246;28;20028;-42
2021/09/19 00:56:05;;;;;;;11.15;8.30;;;;;;;13.71;82.30;101573.53;5054182;28;20032;-41
2021/09/19 00:58:32;;;;;;;11.25;8.70;;;;;;;13.67;82.41;101577.50;5053179;28;20028;-42
2021/09/19 01:00:58;;;;;;;14.40;8.52;;;;;;;13.64;81.92;101579.69;5054398;28;20024;-43
2021/09/19 01:03:23;;;;;;;11.63;8.50;;;;;;;13.66;82.38;101581.06;5054293;28;20029;-41
2021/09/19 01:05:49;;;;;;;12.15;8.82;;;;;;;13.61;82.54;101588.66;5053827;28;20483;-42
2021/09/19 01:08:14;;;;;;;11.18;8.13;;;;;;;13.57;82.78;101595.19;5053893;28;20036;-43
2021/09/19 01:10:40;;;;;;;11.70;8.23;;;;;;;13.58;83.01;101590.78;5052907;28;20029;-42
2021/09/19 01:13:05;;;;;;;11.65;8.05;;;;;;;13.51;83.18;101585.53;5052653;28;20037;-43
2021/09/19 01:15:30;;;;;;;12.70;8.93;;;;;;;13.52;83.17;101585.38;5052595;28;20025;-42
2021/09/19 01:17:56;;;;;;;11.27;8.55;;;;;;;13.54;83.23;101578.19;5053209;28;20044;-42
2021/09/19 01:20:22;;;;;;;12.73;9.10;;;;;;;13.56;83.17;101585.00;5036308;28;20025;-42
2021/09/19 01:22:59;;;;;;;12.80;9.45;;;;;;;13.54;83.51;101583.38;5054248;28;20455;-42
2021/09/19 01:25:25;;;;;;;15.30;9.25;;;;;;;13.60;83.13;101579.22;5054038;28;20074;-43
2021/09/19 01:27:50;;;;;;;11.88;9.18;;;;;;;13.53;83.18;101586.16;5052551;28;20017;-42
2021/09/19 01:30:15;;;;;;;11.88;9.23;;;;;;;13.43;83.53;101576.09;5053648;28;20031;-42
2021/09/19 01:32:41;;;;;;;13.85;9.80;;;;;;;13.45;84.00;101578.50;5052660;28;20103;-42
2021/09/19 01:35:07;;;;;;;13.75;9.82;;;;;;;13.51;83.69;101573.34;5053588;28;20025;-42
2021/09/19 01:37:33;;;;;;;14.38;9.85;;;;;;;13.51;83.85;101578.56;5053453;28;20021;-42
2021/09/19 01:39:58;;;;;;;13.68;10.02;;;;;;;13.37;84.63;101563.84;5053732;28;20028;-41
2021/09/19 01:42:26;;;;;;;11.73;9.45;;;;;;;13.39;84.38;101566.28;5053499;28;20037;-42
2021/09/19 01:44:51;;;;;;;14.15;10.32;;;;;;;13.30;85.11;101560.41;5053339;28;20027;-42
2021/09/19 01:47:16;;;;;;;17.70;11.05;;;;;;;13.27;85.12;101558.19;5052004;28;20024;-42
2021/09/19 01:49:49;;;;;;;14.82;11.05;;;;;;;13.24;84.97;101558.53;5053414;28;20103;-42
2021/09/19 01:52:15;;;;;;;14.05;10.65;;;;;;;13.23;85.35;101554.28;5053330;28;20029;-41
2021/09/19 01:54:40;;;;;;;14.00;10.18;;;;;;;13.29;84.68;101553.59;5053488;28;20127;-41
2021/09/19 01:57:06;;;;;;;12.65;9.93;;;;;;;13.37;84.63;101550.88;5052315;28;20016;-42
2021/09/19 01:59:32;;;;;;;13.38;10.40;;;;;;;13.35;84.71;101552.88;5053226;28;20074;-42
2021/09/19 02:01:58;;;;;;;15.07;10.23;;;;;;;13.39;84.50;101551.50;5051769;28;20017;-42
2021/09/19 02:04:23;;;;;;;18.20;10.13;;;;;;;13.38;84.51;101552.50;5053325;28;20029;-47
2021/09/19 02:06:48;;;;;;;13.27;10.57;;;;;;;13.40;84.97;101542.69;5052852;28;20041;-42
2021/09/19 02:09:14;;;;;;;15.35;10.68;;;;;;;13.38;84.72;101544.69;5053465;28;20054;-42
2021/09/19 02:11:39;;;;;;;14.15;10.90;;;;;;;13.34;85.08;101547.84;5053117;28;20353;-41
2021/09/19 02:14:04;;;;;;;15.20;11.10;;;;;;;13.40;84.62;101547.09;5053074;28;20029;-42
2021/09/19 02:16:30;;;;;;;13.02;10.00;;;;;;;13.35;85.19;101539.06;5053390;28;20027;-42
2021/09/19 02:18:56;;;;;;;16.02;11.07;;;;;;;13.33;84.98;101534.06;5051786;28;20033;-41
2021/09/19 02:21:21;;;;;;;14.90;11.00;;;;;;;13.39;84.99;101537.72;5051753;28;20032;-42
2021/09/19 02:23:47;;;;;;;17.38;11.45;;;;;;;13.32;85.11;101535.03;5053069;28;20029;-42
2021/09/19 02:26:12;;;;;;;16.00;11.25;;;;;;;13.35;85.01;101532.09;5053204;28;20028;-42
2021/09/19 02:28:38;;;;;;;15.20;11.18;;;;;;;13.27;85.49;101524.44;5052966;28;20021;-42
2021/09/19 02:31:03;;;;;;;17.65;11.63;;;;;;;13.23;85.48;101520.56;5051650;28;20384;-42
2021/09/19 02:33:29;;;;;;;14.32;11.35;;;;;;;13.23;85.40;101526.53;5051849;28;20029;-42
2021/09/19 02:35:54;;;;;;;15.93;11.57;;;;;;;13.18;85.60;101526.31;5053101;28;20105;-42
2021/09/19 02:38:19;;;;;;;13.98;11.43;;;;;;;13.06;86.25;101520.81;5051682;28;20021;-43
2021/09/19 02:40:45;;;;;;;17.10;11.98;;;;;;;13.07;86.29;101522.41;5052953;28;20582;-41
2021/09/19 02:43:10;;;;;;;17.88;11.25;;;;;;;13.23;85.59;101518.75;5051713;28;20099;-42
2021/09/19 02:45:35;;;;;;;14.38;11.18;;;;;;;13.29;85.49;101520.66;5053080;28;20020;-41
2021/09/19 02:48:01;;;;;;;15.80;11.52;;;;;;;13.21;85.64;101523.34;5052987;28;20032;-42
2021/09/19 02:50:26;;;;;;;15.07;11.55;;;;;;;13.19;85.85;101524.53;5052298;28;20027;-42
2021/09/19 02:52:52;;;;;;;15.65;11.45;;;;;;;13.21;85.51;101514.78;5052766;28;20504;-42
2021/09/19 02:55:18;;;;;;;22.35;12.00;;;;;;;13.14;85.91;101512.09;5052697;28;20055;-42
2021/09/19 02:57:43;;;;;;;16.52;11.80;;;;;;;13.19;85.99;101508.97;5051524;28;20582;-42
2021/09/19 03:00:11;;;;;;;15.82;11.63;;;;;;;13.17;85.77;101498.75;5052625;28;20025;-43
2021/09/19 03:02:36;;;;;;;15.00;11.65;;;;;;;13.16;85.71;101506.72;5053251;28;20417;-42
2021/09/19 03:05:02;;;;;;;15.60;11.52;;;;;;;13.10;85.50;101496.09;5052562;28;20025;-42
2021/09/19 03:07:28;;;;;;;19.05;12.02;;;;;;;13.13;85.68;101502.72;5052455;28;20041;-41
2021/09/19 03:09:53;;;;;;;16.05;12.45;;;;;;;13.08;85.59;101507.66;5052591;28;20059;-42
2021/09/19 03:12:19;;;;;;;16.58;11.88;;;;;;;13.08;85.67;101502.47;5052410;28;20032;-42
2021/09/19 03:14:44;;;;;;;14.65;11.68;;;;;;;13.10;85.48;101503.09;5055073;28;20103;-43
2021/09/19 03:17:09;;;;;;;15.43;11.65;;;;;;;13.15;85.40;101497.31;5055099;28;20112;-43
2021/09/19 03:19:35;;;;;;;14.40;11.35;;;;;;;13.05;85.12;101500.25;5056626;28;20036;-42
2021/09/19 03:22:00;;;;;;;15.30;11.55;;;;;;;13.04;85.26;101499.44;5056076;28;20356;-41
2021/09/19 03:24:25;;;;;;;16.27;11.90;;;;;;;13.00;85.56;101494.78;5056283;28;20037;-42
2021/09/19 03:26:51;;;;;;;18.55;11.40;;;;;;;12.94;85.38;101496.34;5056151;28;20031;-41
2021/09/19 03:29:16;;;;;;;15.57;12.05;;;;;;;12.89;85.57;101496.13;5055937;28;20017;-41
2021/09/19 03:31:41;;;;;;;16.30;12.18;;;;;;;12.93;85.61;101494.75;5056171;28;20025;-41
2021/09/19 03:34:07;;;;;;;14.50;11.88;;;;;;;12.91;85.49;101495.91;5055787;28;20375;-42
2021/09/19 03:36:32;;;;;;;15.90;11.93;;;;;;;12.92;86.09;101495.75;5055730;28;20070;-42
2021/09/19 03:38:58;;;;;;;15.32;11.98;;;;;;;12.90;86.08;101492.53;5055951;28;20028;-42
2021/09/19 03:41:23;;;;;;;18.25;12.45;;;;;;;12.90;85.74;101495.13;5055758;28;20414;-42
2021/09/19 03:43:49;;;;;;;16.10;12.02;;;;;;;12.99;85.55;101499.19;5055662;28;20055;-42
2021/09/19 03:46:15;;;;;;;14.77;11.45;;;;;;;12.92;85.36;101495.75;5055489;28;20096;-42
2021/09/19 03:48:40;;;;;;;19.15;11.55;;;;;;;12.97;85.16;101495.97;5055566;28;20021;-42
2021/09/19 03:51:05;;;;;;;18.65;11.68;;;;;;;12.88;85.12;101495.28;5054277;28;20025;-42
2021/09/19 03:53:31;;;;;;;16.40;12.18;;;;;;;12.84;85.45;101499.25;5055762;28;20028;-41
2021/09/19 03:55:56;;;;;;;17.88;12.32;;;;;;;12.84;85.58;101495.84;5055696;28;20124;-41
2021/09/19 03:58:22;;;;;;;18.00;12.15;;;;;;;12.82;85.57;101498.63;5055391;28;20387;-41
2021/09/19 04:00:47;;;;;;;16.58;12.02;;;;;;;12.79;85.04;101493.78;5054011;28;20498;-41
2021/09/19 04:03:13;;;;;;;17.30;12.40;;;;;;;12.71;85.60;101500.88;5055518;28;20021;-41
2021/09/19 04:05:38;;;;;;;14.07;11.27;;;;;;;12.75;85.27;101502.16;5055144;28;20369;-42
2021/09/19 04:08:04;;;;;;;19.52;12.18;;;;;;;12.75;85.43;101499.56;5055419;28;20062;-42
2021/09/19 04:10:29;;;;;;;14.98;11.68;;;;;;;12.81;84.93;101493.63;5055195;28;20128;-42
2021/09/19 04:12:54;;;;;;;17.48;12.02;;;;;;;12.83;84.82;101494.22;5055153;28;20028;-42
2021/09/19 04:15:20;;;;;;;19.08;13.32;;;;;;;12.76;85.81;101498.56;5055106;28;20085;-42
2021/09/19 04:17:45;;;;;;;14.68;12.07;;;;;;;12.80;85.69;101494.59;5053759;28;20017;-41
2021/09/19 04:20:11;;;;;;;16.42;12.00;;;;;;;12.85;85.42;101495.66;5055496;28;20478;-42
2021/09/19 04:22:37;;;;;;;15.93;12.48;;;;;;;12.90;85.47;101499.50;5055153;28;20424;-43
2021/09/19 04:25:02;;;;;;;18.00;12.35;;;;;;;12.85;85.46;101500.03;5054929;28;20021;-42
2021/09/19 04:27:27;;;;;;;15.63;12.45;;;;;;;12.90;85.12;101497.72;5053754;28;20464;-41
2021/09/19 04:29:53;;;;;;;16.17;12.20;;;;;;;12.89;85.11;101501.31;5055259;28;20471;-42
2021/09/19 04:32:19;;;;;;;22.20;12.45;;;;;;;12.98;85.27;101495.00;5054686;28;20090;-41
2021/09/19 04:34:44;;;;;;;17.60;12.43;;;;;;;12.97;85.60;101498.56;5054833;28;20042;-42
2021/09/19 04:37:13;;;;;;;16.50;12.30;;;;;;;13.08;85.03;101494.69;5054911;28;20017;-42
2021/09/19 04:39:39;;;;;;;16.25;12.80;;;;;;;13.09;85.01;101493.72;5054932;28;20021;-42
2021/09/19 04:42:04;;;;;;;18.05;12.60;;;;;;;13.03;85.66;101487.47;5053295;28;20054;-42
2021/09/19 04:44:29;;;;;;;16.13;11.88;;;;;;;13.09;85.54;101491.91;5053195;28;20027;-42
2021/09/19 04:46:55;;;;;;;16.52;12.27;;;;;;;13.13;85.14;101486.34;5054641;28;20029;-42
2021/09/19 04:49:20;;;;;;;16.92;12.20;;;;;;;13.21;84.99;101494.81;5053074;28;20020;-42
2021/09/19 04:51:45;;;;;;;17.63;12.77;;;;;;;13.20;84.86;101492.38;5054440;28;20033;-42
2021/09/19 04:54:11;;;;;;;17.02;12.23;;;;;;;13.15;84.94;101486.94;5055103;28;20035;-41
2021/09/19 04:56:36;;;;;;;15.90;12.48;;;;;;;13.20;85.02;101480.19;5054325;28;20021;-42
2021/09/19 04:59:03;;;;;;;17.90;12.15;;;;;;;13.28;84.69;101482.69;5054501;28;20024;-42
2021/09/19 05:01:28;;;;;;;14.93;12.02;;;;;;;13.23;84.79;101485.03;5054229;28;20543;-43
2021/09/19 05:03:53;;;;;;;16.30;12.38;;;;;;;13.08;85.33;101473.91;5054459;28;20029;-42
2021/09/19 05:06:19;;;;;;;16.90;12.48;;;;;;;13.08;85.48;101482.50;5053869;28;20070;-42
2021/09/19 05:08:44;;;;;;;18.67;12.82;;;;;;;13.07;85.65;101485.28;5054531;28;20352;-41
2021/09/19 05:11:09;;;;;;;17.40;12.40;;;;;;;13.06;85.27;101487.09;5053256;28;20032;-42
2021/09/19 05:13:35;;;;;;;16.90;12.50;;;;;;;13.04;85.29;101486.47;5054251;28;20035;-41
2021/09/19 05:16:00;;;;;;;15.68;11.73;;;;;;;12.99;85.33;101488.00;5054169;28;20020;-42
2021/09/19 05:18:25;;;;;;;17.17;12.77;;;;;;;12.98;85.89;101495.00;5052723;28;20020;-42
2021/09/19 05:20:51;;;;;;;19.00;11.73;;;;;;;12.93;85.23;101489.56;5054058;28;20021;-42
2021/09/19 05:23:16;;;;;;;15.52;11.98;;;;;;;12.87;85.88;101492.88;5053730;28;20025;-42
2021/09/19 05:25:41;;;;;;;16.25;12.38;;;;;;;12.88;85.68;101497.06;5053771;28;20051;-41
2021/09/19 05:28:07;;;;;;;18.67;12.50;;;;;;;12.91;85.57;101501.91;5053904;28;20463;-42
2021/09/19 05:30:32;;;;;;;15.15;11.68;;;;;;;12.93;85.22;101502.53;5054168;28;20032;-41
2021/09/19 05:32:57;;;;;;;19.75;11.60;;;;;;;12.99;85.13;101503.56;5053788;28;20391;-42
2021/09/19 05:35:23;;;;;;;16.60;11.65;;;;;;;12.97;85.28;101508.13;5054067;28;20039;-42
2021/09/19 05:37:48;;;;;;;21.88;12.35;;;;;;;12.91;85.23;101499.31;5053341;28;20468;-42
2021/09/19 05:40:14;;;;;;;18.38;11.88;;;;;;;12.93;85.01;101499.13;5053525;28;20019;-42
2021/09/19 05:42:39;;;;;;;18.48;11.90;;;;;;;12.97;85.20;101493.38;5052203;28;20025;-43
2021/09/19 05:45:05;;;;;;;18.08;12.13;;;;;;;12.98;85.37;101505.38;5053432;28;20070;-42
2021/09/19 05:47:30;;;;;;;15.52;11.45;;;;;;;13.01;85.36;101499.00;5053156;28;20024;-42
2021/09/19 05:49:56;;;;;;;17.25;12.27;;;;;;;13.06;84.91;101501.84;5053302;28;20029;-42
2021/09/19 05:52:21;;;;;;;16.08;11.80;;;;;;;13.03;85.09;101503.03;5053274;28;20421;-41
2021/09/19 05:54:46;;;;;;;14.75;11.20;;;;;;;13.14;84.86;101506.09;5053156;28;20036;-41
2021/09/19 05:57:12;;;;;;;15.35;11.13;;;;;;;13.12;84.45;101503.72;5051786;28;20031;-41
2021/09/19 05:59:37;;;;;;;14.77;11.80;;;;;;;13.19;84.89;101501.16;5053691;28;20033;-42
2021/09/19 06:02:03;;;;;;;15.32;11.50;;;;;;;13.23;84.66;101510.19;5053391;28;20025;-42
2021/09/19 06:04:28;;;;;;;16.05;11.48;;;;;;;13.18;84.73;101505.56;5052000;28;20037;-42
2021/09/19 06:06:54;;;;;;;15.93;12.00;;;;;;;13.26;84.52;101508.06;5035064;28;20049;-44
2021/09/19 06:09:20;;;;;;;19.98;12.60;;;;;;;13.21;84.93;101505.19;5019020;28;20025;-41
2021/09/19 06:11:45;;;;;;;15.30;11.02;;;;;;;13.38;84.40;101507.53;5018878;28;20059;-42
2021/09/19 06:14:11;;;;;;;16.70;11.32;;;;;;;13.45;84.20;101508.41;5053633;28;20029;-42
2021/09/19 06:16:36;;;;;;;15.27;11.15;;;;;;;13.61;83.73;101508.13;5053329;28;20033;-43
2021/09/19 06:19:02;;;;;;;15.55;10.93;;;;;;;13.64;83.38;101506.97;5051766;28;20469;-42
2021/09/19 06:21:28;;;;;;;16.00;11.23;;;;;;;13.74;83.37;101512.59;5051643;28;20056;-42
2021/09/19 06:23:53;;;;;;;15.65;11.55;;;;;;;13.79;83.17;101512.84;5052835;28;20480;-42
2021/09/19 06:26:21;;;;;;;15.65;10.65;;;;;;;13.96;82.58;101510.75;5052759;28;20032;-42
2021/09/19 06:28:46;;;;;;;16.05;10.82;;;;;;;14.00;82.12;101512.75;5051630;28;20021;-43
2021/09/19 06:31:12;;;;;;;13.15;10.35;;;;;;;14.10;81.96;101525.44;5051900;28;20154;-42
2021/09/19 06:33:38;;;;;;;16.85;10.57;;;;;;;14.21;81.73;101527.50;5053303;28;20028;-42
2021/09/19 06:36:04;;;;;;;13.68;9.90;;;;;;;14.35;81.43;101520.53;5052987;28;20029;-42
2021/09/19 06:41:51;;;;;;;14.48;9.32;;;;;;;14.56;80.78;101521.47;5053013;28;20534;-43
2021/09/19 06:44:17;;;;;;;12.55;9.25;;;;;;;14.84;79.68;101521.31;5052761;28;20029;-41
2021/09/19 06:46:43;;;;;;;13.00;9.25;;;;;;;14.92;79.60;101531.56;5034702;28;20025;-43
2021/09/19 06:49:08;;;;;;;12.85;8.60;;;;;;;14.95;79.31;101532.97;5054601;28;20102;-42
2021/09/19 06:51:33;;;;;;;12.32;8.68;;;;;;;14.92;79.68;101530.75;5055852;28;20031;-42
2021/09/19 06:53:59;;;;;;;10.95;8.80;;;;;;;14.96;79.32;101537.97;5057242;28;20082;-43
2021/09/19 06:56:24;;;;;;;11.95;8.63;;;;;;;15.00;79.43;101541.00;5056672;28;20109;-42
2021/09/19 06:58:49;;;;;;;11.32;8.23;;;;;;;15.10;79.07;101538.78;5056585;28;20394;-42
2021/09/19 07:01:15;;;;;;;14.60;8.75;;;;;;;14.91;79.35;101542.97;5055410;28;20029;-42
2021/09/19 07:03:41;;;;;;;10.65;8.63;;;;;;;15.21;78.87;101540.81;5056622;28;20031;-42
2021/09/19 07:06:07;;;;;;;13.15;8.48;;;;;;;15.36;77.94;101538.00;5056492;28;20052;-43
2021/09/19 07:08:32;;;;;;;11.93;8.75;;;;;;;15.24;78.11;101545.63;5056559;28;20021;-43
2021/09/19 07:10:57;;;;;;;9.75;8.07;;;;;;;15.74;76.58;101540.84;5056852;28;20497;-42
2021/09/19 07:13:23;;;;;;;11.98;8.45;;;;;;;16.11;75.09;101535.16;5056408;28;20029;-43
2021/09/19 07:15:52;;;;;;;13.50;8.07;;;;;;;16.17;74.69;101535.16;5055814;28;20036;-42
2021/09/19 07:18:19;;;;;;;12.10;8.30;;;;;;;16.43;74.86;101543.88;5056750;28;20017;-43
2021/09/19 07:20:45;;;;;;;9.93;7.93;;;;;;;19.34;64.21;101541.25;5056133;28;20020;-44
2021/09/19 07:23:10;;;;;;;8.52;7.20;;;;;;;21.51;57.47;101544.06;5055110;28;20051;-42
2021/09/19 07:25:35;;;;;;;7.65;6.43;;;;;;;22.92;52.53;101529.38;5056078;28;20086;-42
2021/09/19 07:28:03;;;;;;;7.43;6.03;;;;;;;22.90;52.38;101531.47;5054838;28;20033;-43
2021/09/19 07:30:30;;;;;;;8.10;5.63;;;;;;;23.45;50.30;101536.63;5056329;28;20021;-43
2021/09/19 07:32:55;;;;;;;8.45;5.68;;;;;;;23.61;50.33;101536.44;5055969;28;20025;-43
2021/09/19 07:35:21;;;;;;;6.50;5.68;;;;;;;24.39;47.85;101534.94;5054698;28;20036;-43
2021/09/19 07:37:46;;;;;;;6.70;5.38;;;;;;;25.26;46.48;101529.72;5055912;28;20021;-43
2021/09/19 07:40:12;;;;;;;10.18;4.93;;;;;;;25.59;45.09;101539.69;5038085;28;20395;-43
2021/09/19 07:42:38;;;;;;;5.70;5.10;;;;;;;26.05;42.77;101544.84;5054563;28;20029;-44
2021/09/19 07:45:04;;;;;;;6.13;5.25;;;;;;;24.64;45.98;101535.00;5056848;28;20454;-44
2021/09/19 07:47:29;;;;;;;5.95;5.35;;;;;;;26.27;42.83;101535.72;5055572;28;20033;-43
2021/09/19 07:49:55;;;;;;;6.25;5.00;;;;;;;27.03;40.80;101536.25;5054417;28;20365;-43
2021/09/19 07:52:20;;;;;;;6.32;5.13;;;;;;;26.80;41.50;101535.91;5055669;28;20056;-44
2021/09/19 07:54:46;;;;;;;6.82;5.07;;;;;;;24.52;46.11;101545.81;5054308;28;20083;-43
2021/09/19 07:57:11;;;;;;;6.43;4.70;;;;;;;26.98;41.55;101543.16;5056009;28;20025;-43
2021/09/19 07:59:37;;;;;;;5.82;4.75;;;;;;;26.84;40.86;101549.41;5054030;28;20025;-44
2021/09/19 08:02:03;;;;;;;7.10;4.70;;;;;;;28.31;37.74;101551.53;5055524;28;20024;-42
2021/09/19 08:04:28;;;;;;;5.00;4.43;;;;;;;26.94;39.48;101550.09;5055690;28;20024;-43
2021/09/19 08:06:53;;;;;;;6.07;4.72;;;;;;;28.26;38.14;101557.72;5055276;28;20427;-42
2021/09/19 08:09:19;;;;;;;6.28;4.70;;;;;;;29.71;34.75;101551.59;5055562;28;20031;-42
2021/09/19 08:11:44;;;;;;;5.50;4.43;;;;;;;28.68;36.68;101557.91;5054011;28;20090;-43
2021/09/19 08:14:09;;;;;;;7.00;4.63;;;;;;;28.26;37.75;101562.25;5054571;28;20029;-43
2021/09/19 08:16:36;;;;;;;5.97;4.35;;;;;;;26.31;41.02;101566.69;5055139;28;20059;-44
2021/09/19 08:19:01;;;;;;;5.45;4.38;;;;;;;28.78;37.14;101555.88;5054117;28;20028;-44
2021/09/19 08:21:27;;;;;;;5.10;4.28;;;;;;;29.37;35.79;101558.88;5055048;28;20502;-43
2021/09/19 08:23:52;;;;;;;5.65;4.70;;;;;;;29.40;36.34;101552.16;5055021;28;20091;-43
2021/09/19 08:26:17;;;;;;;5.32;4.18;;;;;;;29.68;35.64;101551.09;5054859;28;20023;-43
2021/09/19 08:28:43;;;;;;;4.78;4.28;;;;;;;30.67;33.61;101551.38;5055518;28;20086;-43
2021/09/19 08:31:08;;;;;;;5.45;4.47;;;;;;;31.23;32.60;101549.94;5054981;28;20482;-43
2021/09/19 08:33:33;;;;;;;5.38;3.95;;;;;;;31.25;32.19;101552.31;5055367;28;20029;-43
2021/09/19 08:36:00;;;;;;;5.10;4.20;;;;;;;30.84;33.54;101545.34;5053511;28;20066;-43
2021/09/19 08:38:25;;;;;;;4.53;3.60;;;;;;;32.25;30.75;101554.25;5054711;28;20017;-44
2021/09/19 08:40:51;;;;;;;7.15;3.97;;;;;;;31.64;32.03;101551.50;5053983;28;20032;-43
2021/09/19 08:43:16;;;;;;;4.07;3.67;;;;;;;31.53;31.94;101552.88;5054788;28;20025;-44
2021/09/19 08:45:43;;;;;;;4.55;3.75;;;;;;;31.51;31.63;101540.97;5054782;28;20020;-44
2021/09/19 08:48:09;;;;;;;4.25;3.60;;;;;;;31.66;31.52;101545.84;5036799;28;20493;-45
2021/09/19 08:50:35;;;;;;;6.60;3.58;;;;;;;32.62;30.19;101543.22;5054429;28;20029;-43
2021/09/19 08:53:00;;;;;;;4.47;3.60;;;;;;;33.12;29.01;101548.00;5053187;28;20036;-43
2021/09/19 08:55:25;;;;;;;7.18;3.90;;;;;;;33.21;29.16;101544.16;5053087;28;20025;-43
2021/09/19 08:57:51;;;;;;;6.88;3.85;;;;;;;32.62;30.14;101548.59;5054242;28;20023;-44
2021/09/19 09:00:16;;;;;;;5.32;3.97;;;;;;;32.72;30.14;101546.38;5054333;28;20031;-44
2021/09/19 09:02:47;;;;;;;5.18;4.25;;;;;;;30.84;32.06;101537.34;5052939;28;20433;-43
2021/09/19 09:05:23;;;;;;;5.35;3.88;;;;;;;32.16;30.23;101542.00;5053230;28;20025;-44
2021/09/19 09:07:56;;;;;;;4.85;4.18;;;;;;;30.95;32.02;101540.53;5053856;28;20044;-43
2021/09/19 09:10:41;;;;;;;4.68;3.63;;;;;;;32.24;30.85;101533.97;5053105;28;20110;-43
2021/09/19 09:13:31;;;;;;;5.13;3.80;;;;;;;28.28;36.31;101549.44;5052261;28;20044;-43
2021/09/19 09:16:11;;;;;;;5.10;3.70;;;;;;;29.23;34.22;101537.59;5053998;28;20032;-44
2021/09/19 09:18:37;;;;;;;5.50;3.60;;;;;;;28.89;35.27;101551.19;5053130;28;20016;-44
2021/09/19 09:21:03;;;;;;;4.45;3.60;;;;;;;27.07;37.68;101530.09;5054120;28;20142;-43
2021/09/19 09:23:32;;;;;;;5.68;3.47;;;;;;;24.71;44.70;101546.09;5054076;28;20484;-43
2021/09/19 09:26:16;;;;;;;8.68;3.50;;;;;;;23.50;47.30;101555.13;5053890;28;20029;-44
2021/09/19 09:28:45;;;;;;;4.63;3.58;;;;;;;21.94;50.67;101545.19;5035918;28;20025;-44
2021/09/19 09:31:11;;;;;;;5.32;3.65;;;;;;;22.43;50.94;101547.09;5053710;28;20053;-43
2021/09/19 09:33:37;;;;;;;4.60;3.72;;;;;;;23.25;48.05;101543.38;5052230;28;20028;-43
2021/09/19 09:36:07;;;;;;;3.75;3.20;;;;;;;24.07;46.87;101543.81;5053755;28;20370;-45
2021/09/19 09:38:33;;;;;;;4.25;3.45;;;;;;;22.90;48.53;101541.19;5053376;28;20025;-43
2021/09/19 09:40:58;;;;;;;4.60;3.10;;;;;;;23.77;48.08;101544.50;5052471;28;20132;-43
2021/09/19 09:43:24;;;;;;;4.95;3.67;;;;;;;23.04;47.70;101537.13;5053597;28;20060;-50
2021/09/19 09:45:50;;;;;;;5.32;3.28;;;;;;;23.40;48.45;101551.38;5053010;28;20430;-42
2021/09/19 09:48:32;;;;;;;4.47;3.33;;;;;;;22.09;50.18;101548.00;5053333;28;20025;-43
2021/09/19 09:50:58;;;;;;;6.50;3.10;;;;;;;23.65;48.17;101547.31;5053440;28;20116;-43
2021/09/19 09:53:24;;;;;;;4.03;3.10;;;;;;;23.59;47.70;101543.84;5052116;28;20044;-43
2021/09/19 09:55:51;;;;;;;4.82;3.38;;;;;;;22.70;49.48;101550.53;5053157;28;20045;-43
2021/09/19 09:58:18;;;;;;;5.85;3.30;;;;;;;22.20;50.49;101545.53;5052651;28;20021;-45
2021/09/19 10:00:44;;;;;;;3.47;3.00;;;;;;;22.18;50.53;101544.97;5052765;28;20021;-44
2021/09/19 10:03:09;;;;;;;3.53;3.10;;;;;;;22.88;49.40;101543.31;5052012;28;20044;-43
2021/09/19 10:05:35;;;;;;;5.63;2.60;;;;;;;23.23;49.54;101544.66;5053161;28;20017;-44
2021/09/19 10:08:00;;;;;;;5.78;3.10;;;;;;;23.36;48.22;101554.75;5052602;28;20400;-43
2021/09/19 10:10:31;;;;;;;8.00;2.83;;;;;;;23.61;47.88;101559.41;5053175;28;20471;-44
2021/09/19 10:12:58;;;;;;;5.30;2.80;;;;;;;22.79;49.74;101548.25;5053054;28;20529;-43
2021/09/19 10:15:25;;;;;;;8.10;3.60;;;;;;;22.80;48.98;101549.81;5052698;28;20017;-43
2021/09/19 10:17:50;;;;;;;4.32;3.25;;;;;;;22.66;50.07;101554.69;5052797;28;20040;-44
2021/09/19 10:20:20;;;;;;;6.20;3.08;;;;;;;23.47;47.57;101566.19;5051279;28;20021;-43
2021/09/19 10:23:02;;;;;;;4.20;3.30;;;;;;;23.32;47.72;101565.03;5036735;28;20021;-44
2021/09/19 10:25:35;;;;;;;5.03;2.90;;;;;;;23.48;49.30;101565.94;5056760;28;20025;-45
2021/09/19 10:28:23;;;;;;;5.05;3.45;;;;;;;22.69;49.74;101561.31;5056842;28;20291;-45
2021/09/19 10:31:19;;;;;;;4.65;3.30;;;;;;;22.67;50.13;101560.75;5056783;28;20047;-45
2021/09/19 10:33:56;;;;;;;4.72;3.58;;;;;;;21.96;51.69;101558.09;5056377;28;20029;-45
2021/09/19 10:36:45;;;;;;;9.52;3.35;;;;;;;22.95;50.03;101552.63;5055390;28;20032;-45
2021/09/19 10:39:13;;;;;;;4.82;3.20;;;;;;;23.53;48.66;101549.34;5056520;28;20072;-44
2021/09/19 10:42:14;;;;;;;5.93;3.28;;;;;;;21.80;52.42;101552.63;5056580;28;20501;-45
2021/09/19 10:44:45;;;;;;;5.22;3.60;;;;;;;22.13;53.33;101548.31;5055070;28;20466;-45
2021/09/19 10:47:25;;;;;;;5.18;3.72;;;;;;;23.35;49.47;101551.34;5056070;28;20028;-45
2021/09/19 10:50:10;;;;;;;4.50;3.50;;;;;;;23.55;49.46;101552.50;5055157;28;20025;-44
2021/09/19 10:52:40;;;;;;;7.63;3.88;;;;;;;23.13;49.82;101540.09;5054914;28;20040;-44
2021/09/19 10:55:05;;;;;;;4.38;3.40;;;;;;;23.86;48.30;101554.28;5037807;28;20101;-45
2021/09/19 10:57:34;;;;;;;6.43;3.17;;;;;;;24.47;47.49;101535.25;5037600;28;20139;-44
2021/09/19 11:00:08;;;;;;;5.05;3.00;;;;;;;25.36;45.05;101533.13;5056676;28;20029;-45
2021/09/19 11:02:36;;;;;;;4.97;3.53;;;;;;;25.04;44.84;101544.00;5055638;28;20111;-45
2021/09/19 11:05:21;;;;;;;8.52;5.05;;;;;;;25.16;45.81;101541.09;5055691;28;20100;-45
2021/09/19 11:07:47;;;;;;;5.60;3.38;;;;;;;24.32;46.52;101541.25;5055021;28;20057;-45
2021/09/19 11:10:13;;;;;;;7.78;3.30;;;;;;;24.10;46.17;101532.72;5055420;28;20029;-45
2021/09/19 11:12:46;;;;;;;4.30;3.10;;;;;;;24.24;45.89;101541.75;5054188;28;20086;-44
2021/09/19 11:15:14;;;;;;;3.97;3.20;;;;;;;24.19;46.36;101547.03;5056412;28;20047;-45
2021/09/19 11:17:44;;;;;;;3.70;3.10;;;;;;;23.87;46.92;101542.69;5055638;28;20024;-46